Latest Coastal Weather Observations for Mackay

IDQ60701

Issued at 1:42 pm EST Tuesday 26 May 2020 (issued every 10 minutes, with the page automatically refreshed every 10 minutes)

About coastal observations | Map of coastal stations | Coastal observations for QLD | Marine services | Other Formats
Station Details ID: 033119 Name: MACKAY M.O Lat: -21.12 Lon: 149.22 Height: 30.26 m
Data from the previous 72 hours. | See also: Recent months at Mackay
Date/Time
EST
Wind Sea
Height
m
Swell Vis
km
Cloud Weather Temp
°C
Press
hPa
Rain since
9am
mm
Dir  Spd
kts
Gust
kts
Height
m
Period
s
Dir
26/01:30pm SE 6 9 - - - - - Clear - 20.7 1018.6 0.0
26/01:00pm SE 7 12 - - - - - - - 21.0 1018.8 0.0
26/12:30pm SE 7 12 - - - - - - - 20.9 1019.3 0.0
26/12:00pm SSE 6 11 - - - - - - - 20.7 1019.7 0.0
26/11:30am SSE 8 13 - - - - - - - 20.3 1020.2 0.0
26/11:00am SSE 9 13 - - - - - - - 19.7 1020.4 0.0
26/10:30am SSE 8 11 - - - - - - - 19.4 1020.5 0.0
26/10:00am S 8 12 - - - - - - - 18.6 1020.6 0.0
26/09:30am S 8 12 - - - - - - - 18.0 1020.5 0.0
26/09:00am SW 6 8 - - - - - - - 16.6 1020.4 0.0
26/08:30am WSW 6 8 - - - - - - - 14.6 1020.3 0.0
26/08:00am WSW 6 9 - - - - - - - 13.2 1020.0 0.0
26/07:30am WSW 8 11 - - - - - - - 12.1 1019.8 0.0
26/07:00am WSW 8 11 - - - - - - - 11.5 1019.4 0.0
26/06:30am WSW 9 12 - - - - - - - 11.0 1019.3 0.0
26/06:00am WSW 9 14 - - - - - - - 10.9 1019.1 0.0
26/05:30am WSW 7 10 - - - - - - - 10.9 1018.8 0.0
26/05:00am WSW 8 10 - - - - - - - 11.5 1018.3 0.0
26/04:30am WSW 8 11 - - - - - - - 11.6 1018.2 0.0
26/04:00am WSW 7 10 - - - - - - - 11.5 1018.1 0.0
26/03:30am WSW 8 10 - - - - - - - 11.6 1018.1 0.0
26/03:00am WSW 7 9 - - - - - - - 11.3 1018.2 0.0
26/02:30am WSW 8 10 - - - - - - - 11.6 1018.5 0.0
26/02:00am WSW 8 11 - - - - - - - 11.7 1018.7 0.0
26/01:30am WSW 7 9 - - - - - - - 11.9 1019.0 0.0
26/01:00am WSW 8 10 - - - - - - - 12.0 1019.0 0.0
26/12:30am WSW 9 12 - - - - - - - 12.2 1019.0 0.0
26/12:00am WSW 7 9 - - - - - - - 12.7 1019.1 0.0
 
Date/Time
EST
Wind Sea
Height
m
Swell Vis
km
Cloud Weather Temp
°C
Press
hPa
Rain since
9am
mm
Dir  Spd
kts
Gust
kts
Height
m
Period
s
Dir
25/11:30pm WSW 6 8 - - - - - - - 13.2 1019.3 0.0
25/11:00pm WSW 7 8 - - - - - - - 13.9 1019.5 0.0
25/10:30pm WSW 7 8 - - - - - - - 13.5 1019.6 0.0
25/10:00pm WSW 6 7 - - - - - - - 14.2 1019.6 0.0
25/09:30pm WSW 6 6 - - - - - - - 14.9 1019.6 0.0
25/09:00pm WSW 6 7 - - - - - - - 14.8 1019.5 0.0
25/08:30pm WSW 1 5 - - - - - - - 16.4 1019.1 0.0
25/08:00pm CALM 0 0 - - - - - - - 16.7 1018.7 0.0
25/07:30pm CALM 0 0 - - - - - - - 16.4 1018.3 0.0
25/07:00pm NNW 1 4 - - - - - - - 16.2 1017.8 0.0
25/06:30pm CALM 0 2 - - - - - - - 16.0 1017.3 0.0
25/06:00pm N 3 4 - - - - - - - 16.0 1016.8 0.0
25/05:30pm N 4 5 - - - - - - - 16.2 1016.6 0.0
25/05:00pm N 5 6 - - - - - - - 17.5 1016.2 0.0
25/04:30pm N 5 9 - - - - - - - 18.7 1016.1 0.0
25/04:00pm NNE 5 8 - - - - - - - 19.9 1016.0 0.0
25/03:30pm NNE 5 8 - - - - - - - 20.4 1015.9 0.0
25/03:00pm NE 5 9 - - - - - - - 20.7 1016.1 0.0
25/02:30pm ENE 5 8 - - - - - - - 20.7 1016.3 0.0
25/02:00pm E 7 10 - - - - - - - 19.9 1016.5 0.0
25/01:30pm E 6 8 - - - - - - - 19.5 1016.8 0.0
25/01:00pm ESE 6 9 - - - - - - - 18.9 1017.3 0.0
25/12:30pm E 6 8 - - - - - - - 18.7 1017.7 0.0
25/12:00pm SSE 6 9 - - - - - - - 18.6 1018.0 0.0
25/11:30am SE 5 8 - - - - - - - 18.7 1018.2 0.0
25/11:00am SSE 7 9 - - - - - - - 18.4 1018.8 0.0
25/10:30am SSE 6 9 - - - - - - - 17.8 1018.8 0.0
25/10:00am S 7 10 - - - - - - - 17.4 1019.2 0.0
25/09:30am S 8 11 - - - - - - - 16.7 1019.2 0.0
25/09:00am SW 5 8 - - - - - - - 15.5 1019.2 0.0
25/08:30am SW 5 8 - - - - - - - 14.1 1018.9 0.0
25/08:00am SW 5 7 - - - - - - - 12.4 1018.7 0.0
25/07:30am WSW 6 8 - - - - - - - 11.1 1018.3 0.0
25/07:00am W 7 9 - - - - - - - 10.8 1017.8 0.0
25/06:30am W 6 8 - - - - - - - 10.4 1017.6 0.0
25/06:00am WSW 7 8 - - - - - - - 10.3 1017.0 0.0
25/05:30am W 7 9 - - - - - - - 10.8 1017.0 0.0
25/05:00am WSW 7 10 - - - - - - - 9.8 1016.4 0.0
25/04:30am WSW 7 8 - - - - - - - 9.8 1016.4 0.0
25/04:00am W 7 9 - - - - - - - 10.4 1016.1 0.0
25/03:30am W 7 10 - - - - - - - 10.2 1016.0 0.0
25/03:00am W 6 9 - - - - - - - 9.8 1016.2 0.0
25/02:30am WSW 7 8 - - - - - - - 10.1 1016.1 0.0
25/02:00am WSW 7 8 - - - - - - - 10.7 1016.2 0.0
25/01:30am WSW 7 8 - - - - - - - 11.2 1016.6 0.0
25/01:00am W 7 8 - - - - - - - 11.7 1016.9 0.0
25/12:30am W 6 8 - - - - - - - 11.7 1017.0 0.0
25/12:00am WSW 7 8 - - - - - - - 11.5 1017.1 0.0
 
Date/Time
EST
Wind Sea
Height
m
Swell Vis
km
Cloud Weather Temp
°C
Press
hPa
Rain since
9am
mm
Dir  Spd
kts
Gust
kts
Height
m
Period
s
Dir
24/11:30pm WSW 7 8 - - - - - - - 11.8 1017.3 0.0
24/11:00pm WSW 6 7 - - - - - - - 12.1 1017.5 0.0
24/10:30pm W 6 8 - - - - - - - 12.6 1017.7 0.0
24/10:00pm W 7 9 - - - - - - - 12.9 1017.7 0.0
24/09:30pm W 7 9 - - - - - - - 13.4 1017.8 0.0
24/09:00pm W 7 8 - - - - - - - 14.5 1017.4 0.0
24/08:30pm W 6 7 - - - - - - - 15.4 1017.3 0.0
24/08:00pm WNW 5 6 - - - - - - - 15.7 1016.7 0.0
24/07:30pm WSW 5 6 - - - - - - - 16.2 1016.1 0.0
24/07:00pm WNW 4 5 - - - - - - - 15.7 1015.8 0.0
24/06:30pm SW 5 6 - - - - - - - 16.1 1015.3 0.0
24/06:00pm WSW 6 7 - - - - - - - 16.5 1014.9 0.0
24/05:30pm SW 6 7 - - - - - - - 16.4 1014.3 0.0
24/05:00pm WSW 4 6 - - - - - - - 17.8 1013.9 0.0
24/04:30pm SW 6 11 - - - - - - - 18.6 1013.6 0.0
24/04:00pm SW 7 11 - - - - - - - 19.0 1013.4 0.0
24/03:30pm SSW 4 7 - - - - - - - 19.8 1013.6 0.0
24/03:00pm ESE 4 6 - - - - - - - 19.1 1013.7 0.0
24/02:30pm SE 5 7 - - - - - - - 18.4 1013.5 0.0
24/02:00pm SSE 6 10 - - - - - - - 18.6 1013.7 0.0
24/01:30pm SE 5 9 - - - - - - - 18.1 1014.2 0.0
24/01:00pm SSE 6 11 - - - - - - - 18.0 1014.7 0.0
24/12:30pm SSE 7 11 - - - - - - - 17.7 1015.4 0.0
24/12:00pm SSE 7 11 - - - - - - - 17.6 1016.2 0.0
24/11:30am SSE 7 10 - - - - - - - 17.2 1016.6 0.0
24/11:00am SSW 7 13 - - - - - - - 17.0 1017.1 0.0
24/10:30am S 7 12 - - - - - - - 16.6 1017.1 0.0
24/10:00am SSW 9 13 - - - - - - - 16.5 1017.3 0.0
24/09:30am SW 9 13 - - - - - - - 15.5 1017.3 0.0
24/09:00am WSW 7 11 - - - - - - Recent precip. 14.4 1017.2 11.0
24/08:30am SW 8 12 - - - - - - - 13.2 1017.1 10.8
24/08:00am WSW 6 9 - - - - - - - 12.2 1016.9 10.8
24/07:30am WSW 5 9 - - - - - - - 10.8 1016.4 10.8
24/07:00am WSW 8 11 - - - - - - - 10.0 1015.8 10.8
24/06:30am WSW 8 10 - - - - - - - 10.0 1015.2 10.8
24/06:00am WSW 8 13 - - - - - - - 10.3 1014.9 10.8
24/05:30am SW 9 15 - - - - - - - 10.2 1014.4 10.8
24/05:00am SW 9 11 - - - - - - - 9.9 1014.3 10.8
24/04:30am WSW 6 7 - - - - - - - 10.0 1014.5 10.8
24/04:00am SW 7 10 - - - - - - - 10.2 1014.2 10.8
24/03:30am WSW 4 6 - - - - - - - 10.3 1014.5 10.8
24/03:00am SW 6 7 - - - - - Partly cloudy - 10.7 1014.4 10.8
24/02:30am WSW 5 7 - - - - - - - 11.3 1014.8 10.8
24/02:00am SW 6 8 - - - - - - - 11.5 1014.0 10.8
24/01:57am SW 6 8 - - - - - - - 11.4 1013.9 10.8
24/01:42am WSW 6 8 - - - - - - - 11.5 1015.9 10.8
24/01:30am SW 7 11 - - - - - - - 11.5 1013.9 10.8
24/01:00am SW 7 11 - - - - - - - 11.6 1015.4 10.8
24/12:30am SW 6 9 - - - - - - - 11.7 1015.0 10.8
24/12:00am WSW 7 11 - - - - - Mostly cloudy - 11.6 1015.5 10.8
 
Date/Time
EST
Wind Sea
Height
m
Swell Vis
km
Cloud Weather Temp
°C
Press
hPa
Rain since
9am
mm
Dir  Spd
kts
Gust
kts
Height
m
Period
s
Dir
23/11:30pm SW 7 11 - - - - - - - 11.7 1015.5 10.8
23/11:00pm SW 5 9 - - - - - - - 11.9 1016.7 10.8
23/10:30pm SSW 7 11 - - - - - - - 11.9 1016.1 10.8
23/10:00pm SW 8 11 - - - - - - - 12.0 1016.2 10.8
23/09:34pm SSW 4 8 - - - - - - - 11.9 1014.9 10.8
23/09:30pm SSW 5 8 - - - - - - - 12.0 1016.9 10.8
23/09:00pm SW 9 12 - - - - - Cloudy - 12.0 1016.5 10.8
23/08:30pm SSW 6 7 - - - - - - - 12.0 1016.0 10.8
23/08:00pm SSW 7 10 - - - - - - - 11.9 1014.7 10.8
23/07:55pm SSW 7 13 - - - - - - - 11.9 1014.9 10.8
23/07:42pm SSW 9 13 - - - - - Partly cloudy - 12.0 1016.9 10.8
23/07:30pm S 6 9 - - - - - Partly cloudy - 12.0 1014.8 10.8
23/07:00pm SSW 5 7 - - - - - Partly cloudy - 12.1 1015.6 10.8
23/06:30pm SSW 4 7 - - - - - Partly cloudy - 12.2 1015.1 10.8
23/06:00pm S 6 8 - - - - - Mostly cloudy - 12.2 1013.8 10.8
23/05:30pm SSW 7 11 - - - - - Partly cloudy - 12.0 1014.8 10.8
23/05:00pm SSW 5 6 - - - - - Cloudy - 12.2 1013.7 10.8
23/04:30pm W 1 4 - - - - - Cloudy - 12.2 1014.2 10.6
23/04:00pm SW 5 7 - - - - - Cloudy - 12.2 1014.3 9.8
23/03:30pm SW 5 8 - - - - - Partly cloudy - 12.3 1013.6 9.4
23/03:00pm SW 6 8 - - - - - Cloudy Recent precip. 12.1 1014.7 8.8
23/02:30pm SW 5 7 - - - - - Partly cloudy - 12.7 1014.7 8.0
23/02:00pm SW 6 9 - - - - - Partly cloudy - 12.5 1015.3 7.2

Other formats

Comma delimited format used in spreadsheet applications
http://www.bom.gov.au/fwo/IDQ60701/IDQ60701.94367.axf

JavaScript Object Notation format (JSON) in row-major order
http://www.bom.gov.au/fwo/IDQ60701/IDQ60701.94367.json

Data quality

Most of these data are generated automatically and are frequently updated. Quality checks on data are not normally performed. It is possible for incorrect values to appear. Refer to information at About Latest Weather Observations and please check the disclaimer before using these data.